createdAt,value
2023-05-12T00:01:46.771Z,3.30
2023-05-12T00:04:17.113Z,2.50
2023-05-12T00:06:48.731Z,3.10
2023-05-12T00:09:18.142Z,3.30
2023-05-12T00:11:49.981Z,2.90
2023-05-12T00:14:20.618Z,3.30
2023-05-12T00:16:52.748Z,3.30
2023-05-12T00:19:22.992Z,3.30
2023-05-12T00:21:53.158Z,3.30
2023-05-12T00:24:23.399Z,3.20
2023-05-12T00:26:54.962Z,3.30
2023-05-12T00:29:24.797Z,3.80
2023-05-12T00:31:56.517Z,3.40
2023-05-12T00:34:28.891Z,3.50
2023-05-12T00:36:58.273Z,3.90
2023-05-12T00:39:27.149Z,3.60
2023-05-12T00:42:00.549Z,3.80
2023-05-12T00:46:59.505Z,3.50
2023-05-12T00:49:32.189Z,4.20
2023-05-12T00:52:03.818Z,3.30
2023-05-12T00:54:34.064Z,3.40
2023-05-12T00:57:04.231Z,3.80
2023-05-12T00:59:34.098Z,3.90
2023-05-12T01:02:04.919Z,3.70
2023-05-12T01:04:36.742Z,3.80
2023-05-12T01:07:28.695Z,3.60
2023-05-12T01:10:00.197Z,3.60
2023-05-12T01:12:32.889Z,3.60
2023-05-12T01:15:03.019Z,4.10
2023-05-12T01:17:36.366Z,3.70
2023-05-12T01:20:12.855Z,4.00
2023-05-12T01:22:43.819Z,5.20
2023-05-12T01:25:15.669Z,4.00
2023-05-12T01:30:19.388Z,4.40
2023-05-12T01:32:52.380Z,4.00
2023-05-12T01:35:22.875Z,5.70
2023-05-12T01:38:01.505Z,6.10
2023-05-12T01:40:31.825Z,5.50
2023-05-12T01:43:02.676Z,4.80
2023-05-12T01:45:37.050Z,4.80
2023-05-12T01:48:08.209Z,4.90
2023-05-12T01:50:38.470Z,5.00
2023-05-12T01:53:13.859Z,5.20
2023-05-12T01:55:43.529Z,5.10
2023-05-12T01:58:12.474Z,4.50
2023-05-12T02:00:42.300Z,4.30
2023-05-12T02:03:12.841Z,4.30
2023-05-12T02:05:42.224Z,4.10
2023-05-12T02:08:12.450Z,4.10
2023-05-12T02:10:42.694Z,4.10
2023-05-12T02:13:13.444Z,4.30
2023-05-12T02:15:44.234Z,4.60
2023-05-12T02:18:13.816Z,3.90
2023-05-12T02:20:43.769Z,4.00
2023-05-12T02:23:13.767Z,5.00
2023-05-12T02:25:42.876Z,4.20
2023-05-12T02:28:12.953Z,4.00
2023-05-12T02:30:53.455Z,4.40
2023-05-12T02:33:23.704Z,4.60
2023-05-12T02:35:54.590Z,4.80
2023-05-12T02:38:24.958Z,5.50
2023-05-12T02:40:54.789Z,6.50
2023-05-12T02:43:25.482Z,8.10
2023-05-12T02:45:56.107Z,5.80
2023-05-12T02:48:27.857Z,6.90
2023-05-12T02:50:57.660Z,6.20
2023-05-12T02:53:28.930Z,5.40
2023-05-12T02:55:58.479Z,6.20
2023-05-12T02:58:27.934Z,5.30
2023-05-12T03:01:09.445Z,4.70
2023-05-12T03:03:41.687Z,4.50
2023-05-12T03:06:12.442Z,4.80
2023-05-12T03:08:42.861Z,4.40
2023-05-12T03:11:13.137Z,4.10
2023-05-12T03:13:43.085Z,4.10
2023-05-12T03:16:13.137Z,4.30
2023-05-12T03:18:44.075Z,4.10
2023-05-12T03:21:13.543Z,4.40
2023-05-12T03:23:42.906Z,4.40
2023-05-12T03:26:11.947Z,4.50
2023-05-12T03:28:41.493Z,5.60
2023-05-12T03:31:11.295Z,5.20
2023-05-12T03:33:40.927Z,4.50
2023-05-12T03:36:10.688Z,4.50
2023-05-12T03:38:40.941Z,4.30
2023-05-12T03:41:10.555Z,4.20
2023-05-12T03:43:41.697Z,4.30
2023-05-12T03:46:13.350Z,4.60
2023-05-12T03:48:43.903Z,4.00
2023-05-12T03:51:13.733Z,4.10
2023-05-12T03:53:47.012Z,4.70
2023-05-12T03:56:17.682Z,4.40
2023-05-12T03:58:48.363Z,4.10
2023-05-12T04:01:19.396Z,4.30
2023-05-12T04:03:49.766Z,4.10
2023-05-12T04:06:19.458Z,3.90
2023-05-12T04:08:49.485Z,4.10
2023-05-12T04:11:19.131Z,4.10
2023-05-12T04:13:49.592Z,3.70
2023-05-12T04:16:19.824Z,4.30
2023-05-12T04:18:51.296Z,3.80
2023-05-12T04:21:21.468Z,4.50
2023-05-12T04:23:54.080Z,4.10
2023-05-12T04:26:27.357Z,3.50
2023-05-12T04:28:57.342Z,4.20
2023-05-12T04:31:27.785Z,4.20
2023-05-12T04:33:58.379Z,4.40
2023-05-12T04:36:28.542Z,4.20
2023-05-12T04:38:57.814Z,4.80
2023-05-12T04:41:26.804Z,3.80
2023-05-12T04:46:46.844Z,4.50
2023-05-12T04:49:16.302Z,4.10
2023-05-12T04:51:45.844Z,4.40
2023-05-12T04:54:15.876Z,4.10
2023-05-12T04:56:45.364Z,4.10
2023-05-12T04:59:16.471Z,4.00
2023-05-12T05:01:48.751Z,4.20
2023-05-12T05:04:18.156Z,3.70
2023-05-12T05:06:49.185Z,4.60
2023-05-12T05:09:20.061Z,4.20
2023-05-12T05:11:50.103Z,4.10
2023-05-12T05:14:19.716Z,5.20
2023-05-12T05:16:49.950Z,4.10
2023-05-12T05:19:34.223Z,3.70
2023-05-12T05:22:14.837Z,4.90
2023-05-12T05:24:45.137Z,4.00
2023-05-12T05:27:15.594Z,4.30
2023-05-12T05:29:44.803Z,4.70
2023-05-12T05:32:14.657Z,4.10
2023-05-12T05:34:46.156Z,4.30
2023-05-12T05:37:15.922Z,3.80
2023-05-12T05:39:45.553Z,4.30
2023-05-12T05:42:16.275Z,3.70
2023-05-12T05:44:55.554Z,3.50
2023-05-12T05:47:29.047Z,3.60
2023-05-12T05:49:59.713Z,3.80
2023-05-12T05:52:29.324Z,4.20
2023-05-12T05:54:59.838Z,3.60
2023-05-12T05:57:30.684Z,4.00
2023-05-12T06:00:02.172Z,3.40
2023-05-12T06:02:44.186Z,3.70
2023-05-12T06:05:16.946Z,3.10
2023-05-12T06:07:46.269Z,3.40
2023-05-12T06:10:16.333Z,3.20
2023-05-12T06:12:46.453Z,3.70
2023-05-12T06:15:15.810Z,3.60
2023-05-12T06:17:46.091Z,3.40
2023-05-12T06:20:15.837Z,3.20
2023-05-12T06:22:44.796Z,3.00
2023-05-12T06:25:14.251Z,3.30
2023-05-12T06:27:43.331Z,3.20
2023-05-12T06:30:16.114Z,3.20
2023-05-12T06:32:46.421Z,2.90
2023-05-12T06:35:17.527Z,3.70
2023-05-12T06:37:50.845Z,3.10
2023-05-12T06:40:22.340Z,3.30
2023-05-12T06:42:52.240Z,3.30
2023-05-12T06:45:24.185Z,3.50
2023-05-12T06:47:54.299Z,3.10
2023-05-12T06:50:24.282Z,3.50
2023-05-12T06:52:54.820Z,3.10
2023-05-12T06:55:25.520Z,3.00
2023-05-12T06:57:56.333Z,3.10
2023-05-12T07:00:27.596Z,2.90
2023-05-12T07:02:58.137Z,3.20
2023-05-12T07:05:28.221Z,3.00
2023-05-12T07:07:58.890Z,3.10
2023-05-12T07:10:28.552Z,3.30
2023-05-12T07:12:58.591Z,2.60
2023-05-12T07:15:30.075Z,3.10
2023-05-12T07:18:02.071Z,3.40
2023-05-12T07:20:32.332Z,3.10
2023-05-12T07:23:02.263Z,3.00
2023-05-12T07:25:32.893Z,2.90
2023-05-12T07:28:02.220Z,3.20
2023-05-12T07:30:32.511Z,2.70
2023-05-12T07:33:02.587Z,3.00
2023-05-12T07:35:32.691Z,3.50
2023-05-12T07:38:04.089Z,2.60
2023-05-12T07:40:33.520Z,2.90
2023-05-12T07:43:03.397Z,3.30
2023-05-12T07:45:33.345Z,2.60
2023-05-12T07:48:02.976Z,2.90
2023-05-12T07:50:32.868Z,3.30
2023-05-12T07:53:05.023Z,2.90
2023-05-12T07:55:35.484Z,2.60
2023-05-12T07:58:05.004Z,2.20
2023-05-12T08:00:34.952Z,2.40
2023-05-12T08:03:07.113Z,2.40
2023-05-12T08:08:06.734Z,2.90
2023-05-12T08:10:36.226Z,2.30
2023-05-12T08:13:07.184Z,2.30
2023-05-12T08:15:36.752Z,4.20
2023-05-12T08:18:06.538Z,2.50
2023-05-12T08:20:36.370Z,1.90
2023-05-12T08:23:07.182Z,2.20
2023-05-12T08:25:38.483Z,2.30
2023-05-12T08:28:07.748Z,1.90
2023-05-12T08:30:38.081Z,2.20
2023-05-12T08:33:09.066Z,2.00
2023-05-12T08:35:39.551Z,2.40
2023-05-12T08:38:11.068Z,2.10
2023-05-12T08:41:09.969Z,2.00
2023-05-12T08:43:44.361Z,2.30
2023-05-12T08:46:14.072Z,2.50
2023-05-12T08:48:46.769Z,2.20
2023-05-12T08:51:19.801Z,2.40
2023-05-12T08:53:50.900Z,2.20
2023-05-12T08:58:57.023Z,2.50
2023-05-12T09:01:28.703Z,2.50
2023-05-12T09:03:58.553Z,2.40
2023-05-12T09:06:27.816Z,2.30
2023-05-12T09:08:59.414Z,2.70
2023-05-12T09:11:28.886Z,2.30
2023-05-12T09:14:05.313Z,2.40
2023-05-12T09:16:42.021Z,2.30
2023-05-12T09:19:12.548Z,2.10
2023-05-12T09:21:42.835Z,2.80
2023-05-12T09:24:13.925Z,2.80
2023-05-12T09:26:52.636Z,2.40
2023-05-12T09:29:31.374Z,2.40
2023-05-12T09:32:05.092Z,3.20
2023-05-12T09:34:39.035Z,1.90
2023-05-12T09:37:09.433Z,2.10
2023-05-12T09:39:40.140Z,1.50
2023-05-12T09:42:13.684Z,1.30
2023-05-12T09:44:43.707Z,1.80
2023-05-12T09:47:15.964Z,2.20
2023-05-12T09:49:52.545Z,1.70
2023-05-12T09:52:23.249Z,1.50
2023-05-12T09:54:53.058Z,1.70
2023-05-12T09:57:24.419Z,2.50
2023-05-12T09:59:55.389Z,1.40
2023-05-12T10:02:27.154Z,1.70
2023-05-12T10:05:01.492Z,1.80
2023-05-12T10:07:31.664Z,1.50
2023-05-12T10:10:05.842Z,1.70
2023-05-12T10:12:36.432Z,2.10
2023-05-12T10:15:08.999Z,1.80
2023-05-12T10:17:42.547Z,1.90
2023-05-12T10:20:15.992Z,1.40
2023-05-12T10:22:47.228Z,2.00
2023-05-12T10:25:18.114Z,1.50
2023-05-12T10:27:49.194Z,2.00
2023-05-12T10:30:19.081Z,1.80
2023-05-12T10:32:48.601Z,2.00
2023-05-12T10:35:19.271Z,1.90
2023-05-12T10:37:50.577Z,1.90
2023-05-12T10:40:26.151Z,1.70
2023-05-12T10:43:02.834Z,1.80
2023-05-12T10:45:42.159Z,1.60
2023-05-12T10:48:16.632Z,2.00
2023-05-12T10:50:56.605Z,1.60
2023-05-12T10:53:47.598Z,1.70
2023-05-12T10:59:15.028Z,1.60
2023-05-12T11:02:07.863Z,1.60
2023-05-12T11:04:48.141Z,1.80
2023-05-12T11:07:22.869Z,1.50
2023-05-12T11:09:59.136Z,1.60
2023-05-12T11:12:36.141Z,1.60
2023-05-12T11:15:08.543Z,1.20
2023-05-12T11:17:41.662Z,2.10
2023-05-12T11:20:23.880Z,1.20
2023-05-12T11:22:54.763Z,1.60
2023-05-12T11:25:28.851Z,1.50
2023-05-12T11:27:58.898Z,1.60
2023-05-12T11:30:28.177Z,1.90
2023-05-12T11:33:04.513Z,1.60
2023-05-12T11:35:34.417Z,1.60
2023-05-12T11:38:17.828Z,1.70
2023-05-12T11:40:47.976Z,1.40
2023-05-12T11:43:22.906Z,1.80
2023-05-12T11:45:52.253Z,2.00
2023-05-12T11:48:22.788Z,1.80
2023-05-12T11:50:52.245Z,1.30
2023-05-12T11:53:21.539Z,1.80
2023-05-12T11:55:53.960Z,2.00
2023-05-12T11:58:27.191Z,1.70
2023-05-12T12:00:58.403Z,1.40
2023-05-12T12:03:29.306Z,1.70
2023-05-12T12:06:02.260Z,1.50
2023-05-12T12:08:32.464Z,1.80
2023-05-12T12:11:04.589Z,1.60
2023-05-12T12:13:34.652Z,1.60
2023-05-12T12:16:04.854Z,1.70
2023-05-12T12:18:34.779Z,1.70
2023-05-12T12:21:04.245Z,1.50
2023-05-12T12:23:47.396Z,1.10
2023-05-12T12:26:23.414Z,2.00
2023-05-12T12:28:52.733Z,1.70
2023-05-12T12:31:23.270Z,1.60
2023-05-12T12:33:53.164Z,1.50
2023-05-12T12:36:23.486Z,1.80
2023-05-12T12:38:53.152Z,1.90
2023-05-12T12:41:22.771Z,2.00
2023-05-12T12:43:54.116Z,1.70
2023-05-12T12:46:23.341Z,1.70
2023-05-12T12:48:52.852Z,1.70
2023-05-12T12:51:24.278Z,1.80
2023-05-12T12:53:54.314Z,2.10
2023-05-12T12:56:25.574Z,1.70
2023-05-12T12:58:55.528Z,2.10
2023-05-12T13:01:25.878Z,2.00
2023-05-12T13:03:56.428Z,2.40
2023-05-12T13:06:28.201Z,2.00
2023-05-12T13:08:57.858Z,1.80
2023-05-12T13:11:27.322Z,2.00
2023-05-12T13:13:56.599Z,1.80
2023-05-12T13:16:26.593Z,2.10
2023-05-12T13:18:56.892Z,2.00
2023-05-12T13:21:27.378Z,2.20
2023-05-12T13:23:57.818Z,1.10
2023-05-12T13:26:28.032Z,1.90
2023-05-12T13:28:57.650Z,1.90
2023-05-12T13:31:28.415Z,1.90
2023-05-12T13:33:58.397Z,2.20
2023-05-12T13:36:29.127Z,2.20
2023-05-12T13:38:59.265Z,1.80
2023-05-12T13:41:29.015Z,2.10
2023-05-12T13:43:58.655Z,2.30
2023-05-12T13:46:28.456Z,2.00
2023-05-12T13:48:58.159Z,2.00
2023-05-12T13:51:28.011Z,1.80
2023-05-12T13:53:57.817Z,2.20
2023-05-12T13:56:27.631Z,2.00
2023-05-12T13:58:56.892Z,2.20
2023-05-12T14:01:26.973Z,2.10
2023-05-12T14:03:56.562Z,2.10
2023-05-12T14:06:25.968Z,1.70
2023-05-12T14:08:56.569Z,2.10
2023-05-12T14:11:25.749Z,2.30
2023-05-12T14:13:54.892Z,1.80
2023-05-12T14:16:24.810Z,1.90
2023-05-12T14:18:55.990Z,1.60
2023-05-12T14:21:24.951Z,1.60
2023-05-12T14:23:55.754Z,1.80
2023-05-12T14:26:26.705Z,1.70
2023-05-12T14:28:57.132Z,1.50
2023-05-12T14:31:27.280Z,2.00
2023-05-12T14:33:57.263Z,2.30
2023-05-12T14:36:27.649Z,1.90
2023-05-12T14:38:58.364Z,2.40
2023-05-12T14:41:28.424Z,2.00
2023-05-12T14:43:58.523Z,1.40
2023-05-12T14:46:27.742Z,2.10
2023-05-12T14:48:57.406Z,2.00
2023-05-12T14:51:27.494Z,1.60
2023-05-12T14:54:00.110Z,1.90
2023-05-12T14:56:29.650Z,2.00
2023-05-12T14:59:00.327Z,2.10
2023-05-12T15:01:31.096Z,2.10
2023-05-12T15:04:01.789Z,2.00
2023-05-12T15:06:32.516Z,1.90
2023-05-12T15:09:02.559Z,2.00
2023-05-12T15:11:33.558Z,1.40
2023-05-12T15:14:05.454Z,2.20
2023-05-12T15:16:35.726Z,2.10
2023-05-12T15:19:06.652Z,2.30
2023-05-12T15:21:37.050Z,2.40
2023-05-12T15:24:07.457Z,2.10
2023-05-12T15:26:40.475Z,1.60
2023-05-12T15:29:10.456Z,2.10
2023-05-12T15:31:40.677Z,1.90
2023-05-12T15:34:11.471Z,1.60
2023-05-12T15:36:41.471Z,2.10
2023-05-12T15:39:14.193Z,1.80
2023-05-12T15:41:45.172Z,2.00
2023-05-12T15:44:14.577Z,2.00
2023-05-12T15:46:44.523Z,1.60
2023-05-12T15:49:14.672Z,2.20
2023-05-12T15:51:44.911Z,2.10
2023-05-12T15:54:14.792Z,2.30
2023-05-12T15:56:45.203Z,2.20
2023-05-12T15:59:15.178Z,1.80
2023-05-12T16:01:45.010Z,1.80
2023-05-12T16:04:15.019Z,2.30
2023-05-12T16:06:44.183Z,2.40
2023-05-12T16:09:14.086Z,1.80
2023-05-12T16:11:43.315Z,1.70
2023-05-12T16:14:15.456Z,2.10
2023-05-12T16:16:48.849Z,3.00
2023-05-12T16:19:18.898Z,2.70
2023-05-12T16:21:49.397Z,2.50
2023-05-12T16:24:18.909Z,3.20
2023-05-12T16:26:49.137Z,3.90
2023-05-12T16:29:18.824Z,2.90
2023-05-12T16:31:49.163Z,3.70
2023-05-12T16:34:19.879Z,3.00
2023-05-12T16:36:50.405Z,3.00
2023-05-12T16:39:19.578Z,3.40
2023-05-12T16:41:49.357Z,3.50
2023-05-12T16:44:19.040Z,3.70
2023-05-12T16:46:49.104Z,3.20
2023-05-12T16:49:18.962Z,4.20
2023-05-12T16:51:50.613Z,3.60
2023-05-12T16:54:25.806Z,3.10
2023-05-12T16:56:56.855Z,3.20
2023-05-12T16:59:26.445Z,2.70
2023-05-12T17:01:56.061Z,3.00
2023-05-12T17:04:26.134Z,2.60
2023-05-12T17:06:56.325Z,2.00
2023-05-12T17:09:28.429Z,3.80
2023-05-12T17:11:57.937Z,3.00
2023-05-12T17:14:28.302Z,3.20
2023-05-12T17:16:58.080Z,3.00
2023-05-12T17:19:28.662Z,2.90
2023-05-12T17:21:59.116Z,3.40
2023-05-12T17:24:28.895Z,2.60
2023-05-12T17:27:00.134Z,3.20
2023-05-12T17:29:29.926Z,2.50
2023-05-12T17:32:02.476Z,2.50
2023-05-12T17:34:32.209Z,3.20
2023-05-12T17:37:03.451Z,3.10
2023-05-12T17:39:34.934Z,2.70
2023-05-12T17:42:05.306Z,2.70
2023-05-12T17:44:34.451Z,2.70
2023-05-12T17:47:05.298Z,2.70
2023-05-12T17:49:34.764Z,2.60
2023-05-12T17:52:04.578Z,2.70
2023-05-12T17:54:35.453Z,2.90
2023-05-12T17:57:06.407Z,3.40
2023-05-12T17:59:36.689Z,3.30
2023-05-12T18:02:07.365Z,3.20
2023-05-12T18:04:37.443Z,3.20
2023-05-12T18:07:07.155Z,3.10
2023-05-12T18:09:38.153Z,2.80
2023-05-12T18:12:08.668Z,2.80
2023-05-12T18:14:38.224Z,3.00
2023-05-12T18:17:08.326Z,3.10
2023-05-12T18:19:38.267Z,3.30
2023-05-12T18:22:08.469Z,2.90
2023-05-12T18:24:38.734Z,2.50
2023-05-12T18:27:08.048Z,2.60
2023-05-12T18:29:38.452Z,2.80
2023-05-12T18:32:08.839Z,2.70
2023-05-12T18:34:38.627Z,2.90
2023-05-12T18:37:08.004Z,4.00
2023-05-12T18:39:38.917Z,3.00
2023-05-12T18:42:11.942Z,3.00
2023-05-12T18:44:42.821Z,3.20
2023-05-12T18:47:13.352Z,2.90
2023-05-12T18:49:42.661Z,2.90
2023-05-12T18:52:12.673Z,3.00
2023-05-12T18:54:42.347Z,3.10
2023-05-12T18:57:12.821Z,3.00
2023-05-12T18:59:42.698Z,3.20
2023-05-12T19:02:12.394Z,2.90
2023-05-12T19:04:43.449Z,3.50
2023-05-12T19:07:15.963Z,3.30
2023-05-12T19:09:46.341Z,3.70
2023-05-12T19:12:16.375Z,3.50
2023-05-12T19:14:46.609Z,3.60
2023-05-12T19:17:15.838Z,3.50
2023-05-12T19:19:45.629Z,3.90
2023-05-12T19:22:15.856Z,3.90
2023-05-12T19:24:44.850Z,4.00
2023-05-12T19:27:14.872Z,3.90
2023-05-12T19:29:44.402Z,3.70
2023-05-12T19:32:14.402Z,3.90
2023-05-12T19:34:43.872Z,3.90
2023-05-12T19:37:14.451Z,3.70
2023-05-12T19:39:43.889Z,3.90
2023-05-12T19:42:13.476Z,4.00
2023-05-12T19:44:43.421Z,3.70
2023-05-12T19:47:14.625Z,3.70
2023-05-12T19:49:44.967Z,3.30
2023-05-12T19:52:14.031Z,2.70
2023-05-12T19:54:44.077Z,2.60
2023-05-12T19:57:14.066Z,2.50
2023-05-12T19:59:44.241Z,2.50
2023-05-12T20:02:16.050Z,2.40
2023-05-12T20:04:46.191Z,2.20
2023-05-12T20:07:15.748Z,2.40
2023-05-12T20:09:45.720Z,2.10
2023-05-12T20:12:15.171Z,2.90
2023-05-12T20:14:44.828Z,3.10
2023-05-12T20:17:14.320Z,3.20
2023-05-12T20:19:44.220Z,3.30
2023-05-12T20:22:14.276Z,3.00
2023-05-12T20:24:45.193Z,3.50
2023-05-12T20:27:15.259Z,4.00
2023-05-12T20:29:45.048Z,4.50
2023-05-12T20:32:14.746Z,3.80
2023-05-12T20:34:44.170Z,3.80
2023-05-12T20:37:15.506Z,4.30
2023-05-12T20:39:46.166Z,4.20
2023-05-12T20:42:15.921Z,4.40
2023-05-12T20:44:46.601Z,4.50
2023-05-12T20:47:16.471Z,4.50
2023-05-12T20:49:46.039Z,4.50
2023-05-12T20:52:15.541Z,4.30
2023-05-12T20:54:45.475Z,4.00
2023-05-12T20:57:15.623Z,4.60
2023-05-12T20:59:47.292Z,4.10
2023-05-12T21:02:18.972Z,4.30
2023-05-12T21:04:49.339Z,4.50
2023-05-12T21:07:20.373Z,5.10
2023-05-12T21:09:50.348Z,4.90
2023-05-12T21:12:20.155Z,4.60
2023-05-12T21:14:49.766Z,4.60
2023-05-12T21:17:19.303Z,4.80
2023-05-12T21:19:48.877Z,4.80
2023-05-12T21:22:18.283Z,4.40
2023-05-12T21:24:49.912Z,4.50
2023-05-12T21:27:21.357Z,4.20
2023-05-12T21:29:52.081Z,4.30
2023-05-12T21:32:22.423Z,4.20
2023-05-12T21:34:52.059Z,4.60
2023-05-12T21:37:22.373Z,4.20
2023-05-12T21:39:52.470Z,4.00
2023-05-12T21:42:22.985Z,4.10
2023-05-12T21:44:53.238Z,4.50
2023-05-12T21:47:22.603Z,4.90
2023-05-12T21:49:57.234Z,4.70
2023-05-12T21:52:26.957Z,4.60
2023-05-12T21:54:56.342Z,4.50
2023-05-12T21:57:25.692Z,4.00
2023-05-12T21:59:57.541Z,3.40
2023-05-12T22:02:27.367Z,4.40
2023-05-12T22:04:59.582Z,5.00
2023-05-12T22:07:30.419Z,5.80
2023-05-12T22:10:04.160Z,5.40
2023-05-12T22:12:33.744Z,4.90
2023-05-12T22:15:04.652Z,5.40
2023-05-12T22:17:34.735Z,5.10
2023-05-12T22:20:06.141Z,5.20
2023-05-12T22:22:36.548Z,6.30
2023-05-12T22:25:08.307Z,5.30
2023-05-12T22:27:38.643Z,5.50
2023-05-12T22:30:10.704Z,6.50
2023-05-12T22:32:40.300Z,6.20
2023-05-12T22:35:10.754Z,5.90
2023-05-12T22:37:40.380Z,5.90
2023-05-12T22:40:10.857Z,6.40
2023-05-12T22:42:40.905Z,6.70
2023-05-12T22:45:11.075Z,5.90
2023-05-12T22:47:41.022Z,5.90
2023-05-12T22:50:11.470Z,6.20
2023-05-12T22:52:41.619Z,6.30
2023-05-12T22:55:11.717Z,6.20
2023-05-12T22:57:41.424Z,5.50
2023-05-12T23:00:12.631Z,6.90
2023-05-12T23:02:42.504Z,5.80
2023-05-12T23:05:12.484Z,5.50
2023-05-12T23:07:43.071Z,6.10
2023-05-12T23:10:15.008Z,6.60
2023-05-12T23:12:45.722Z,5.40
2023-05-12T23:15:15.959Z,5.80
2023-05-12T23:17:46.562Z,5.00
2023-05-12T23:20:16.766Z,5.40
2023-05-12T23:22:46.584Z,5.60
2023-05-12T23:25:16.998Z,6.50
2023-05-12T23:27:47.222Z,6.00
2023-05-12T23:30:17.544Z,5.90
2023-05-12T23:32:50.846Z,7.00
2023-05-12T23:35:21.509Z,6.50
2023-05-12T23:37:51.411Z,6.40
2023-05-12T23:40:21.660Z,6.30
2023-05-12T23:42:51.574Z,5.70
2023-05-12T23:45:21.552Z,6.00
2023-05-12T23:47:50.977Z,5.70
2023-05-12T23:50:22.378Z,5.50
2023-05-12T23:52:57.067Z,6.10
2023-05-12T23:55:27.303Z,6.60
2023-05-12T23:57:57.525Z,6.20
